Ebensburg, Pennsylvania
Current Conditions -  °F | °C
As of 12:54 PM on Friday 31 Oct 2014 (Local Time) from KJST Reporting Station
Overcast Overcast  
Wind Chill: 39°   Ceiling: 3200
Heat Index: 42°   Visibility: 10mi
Dew Point: 33°   Wind: 5mph
Humidity: 70%   Direction: 130°SE
Pressure: 29.87"   Gusts: NA
Location:  40.49°N, 78.72°W
Report Text: KJST 311654Z AUTO 13004KT 10SM SCT027 OVC032 06/01 A2987 RMK AO2 SLP129 T00560006
Loading
Personal Weather Stations






























Interactive Weather Map
Tropical Storm Tracking
New forecast layout! Learn more

10-Day Weather Forecast

Advertisements
Track Severe Weather on mobile